51.2°F
Current conditions from King Hill
Updated every 5 minutes
 
  Wednesday September 17, 2014

Station Historical Data
Daily Summary for November 18, 2011 Units:  Both    English   Metric
« Previous Day
Next Day »
Daily Weekly Monthly Yearly Custom
  High: Low: Average:
Temperature: 39.0 °F /  3.9 °C 27.5 °F /  -2.5 °C 33.1 °F /  0.6 °C
Dew Point: 24.9 °F /  -3.9 °C 19.3 °F /  -7.1 °C 21.9 °F /  -5.6 °C
Humidity: 74% 48% 64%
Wind Speed: 11.0mph /  17.7km/h - 4.9mph /  7.9km/h
Wind Gust: 18.0mph /  29km/h - -
Wind- - WSW
Pressure: 30.24 in /  1023.9 hPa 29.85 in /  1010.7 hPa -
Precipitation: 0.00 in /  0 mm    
Historical Graphs
 
 
Tabular Data for November 18, 2011
Time Temperature Dew Point Pressure Wind Wind Speed Wind Gust Humidity Daily Rainfall
00:04 30.3 °F /  -0.9 °C 22.7 °F /  -5.2 °C 29.86in /  1011.1hPa SW 2.0mph /  3.2km/h 7.0mph /  11.3km/h 73% 0.00in /  0mm
00:09 30.2 °F /  -1 °C 22.6 °F /  -5.2 °C 29.85in /  1010.7hPa WSW 3.0mph /  4.8km/h 9.0mph /  14.5km/h 73% 0.00in /  0mm
00:14 30.1 °F /  -1.1 °C 22.5 °F /  -5.3 °C 29.86in /  1011.1hPa WSW 2.0mph /  3.2km/h 9.0mph /  14.5km/h 73% 0.00in /  0mm
00:19 30.1 °F /  -1.1 °C 22.8 °F /  -5.1 °C 29.86in /  1011.1hPa Calm   7.0mph /  11.3km/h 74% 0.00in /  0mm
00:24 30.1 °F /  -1.1 °C 22.8 °F /  -5.1 °C 29.86in /  1011.1hPa WSW 2.0mph /  3.2km/h 7.0mph /  11.3km/h 74% 0.00in /  0mm
00:29 30.2 °F /  -1 °C 22.9 °F /  -5.1 °C 29.86in /  1011.1hPa WSW 3.0mph /  4.8km/h 6.0mph /  9.7km/h 74% 0.00in /  0mm
00:34 30.2 °F /  -1 °C 22.9 °F /  -5.1 °C 29.86in /  1011.1hPa WSW 3.0mph /  4.8km/h 6.0mph /  9.7km/h 74% 0.00in /  0mm
00:39 30.1 °F /  -1.1 °C 22.8 °F /  -5.1 °C 29.86in /  1011.1hPa WSW 4.0mph /  6.4km/h 9.0mph /  14.5km/h 74% 0.00in /  0mm
00:44 30.3 °F /  -0.9 °C 23.0 °F /  -5 °C 29.86in /  1011.1hPa West 4.0mph /  6.4km/h 10.0mph /  16.1km/h 74% 0.00in /  0mm
00:49 30.2 °F /  -1 °C 22.9 °F /  -5.1 °C 29.86in /  1011.1hPa WSW 5.0mph /  8km/h 10.0mph /  16.1km/h 74% 0.00in /  0mm
00:54 30.2 °F /  -1 °C 22.9 °F /  -5.1 °C 29.86in /  1011.1hPa SW 5.0mph /  8km/h 11.0mph /  17.7km/h 74% 0.00in /  0mm
00:59 30.2 °F /  -1 °C 22.9 °F /  -5.1 °C 29.86in /  1011.1hPa WSW 4.0mph /  6.4km/h 11.0mph /  17.7km/h 74% 0.00in /  0mm
01:04 30.2 °F /  -1 °C 22.9 °F /  -5.1 °C 29.86in /  1011.1hPa West 5.0mph /  8km/h 10.0mph /  16.1km/h 74% 0.00in /  0mm
01:09 30.2 °F /  -1 °C 22.6 °F /  -5.2 °C 29.87in /  1011.4hPa West 6.0mph /  9.7km/h 11.0mph /  17.7km/h 73% 0.00in /  0mm
01:14 30.3 °F /  -0.9 °C 22.7 °F /  -5.2 °C 29.87in /  1011.4hPa West 6.0mph /  9.7km/h 11.0mph /  17.7km/h 73% 0.00in /  0mm
01:19 30.4 °F /  -0.9 °C 22.8 °F /  -5.1 °C 29.87in /  1011.4hPa West 4.0mph /  6.4km/h 11.0mph /  17.7km/h 73% 0.00in /  0mm
01:24 30.5 °F /  -0.8 °C 22.9 °F /  -5.1 °C 29.88in /  1011.7hPa West 5.0mph /  8km/h 11.0mph /  17.7km/h 73% 0.00in /  0mm
01:29 30.4 °F /  -0.9 °C 22.8 °F /  -5.1 °C 29.88in /  1011.7hPa West 6.0mph /  9.7km/h 13.0mph /  20.9km/h 73% 0.00in /  0mm
01:34 30.5 °F /  -0.8 °C 22.9 °F /  -5.1 °C 29.88in /  1011.7hPa WSW 6.0mph /  9.7km/h 14.0mph /  22.5km/h 73% 0.00in /  0mm
01:39 30.6 °F /  -0.8 °C 23.0 °F /  -5 °C 29.88in /  1011.7hPa West 6.0mph /  9.7km/h 14.0mph /  22.5km/h 73% 0.00in /  0mm
01:44 30.5 °F /  -0.8 °C 22.9 °F /  -5.1 °C 29.89in /  1012.1hPa West 6.0mph /  9.7km/h 12.0mph /  19.3km/h 73% 0.00in /  0mm
01:49 30.3 °F /  -0.9 °C 22.7 °F /  -5.2 °C 29.89in /  1012.1hPa West 8.0mph /  12.9km/h 13.0mph /  20.9km/h 73% 0.00in /  0mm
01:54 30.2 °F /  -1 °C 22.9 °F /  -5.1 °C 29.89in /  1012.1hPa WSW 7.0mph /  11.3km/h 13.0mph /  20.9km/h 74% 0.00in /  0mm
01:59 30.3 °F /  -0.9 °C 22.7 °F /  -5.2 °C 29.89in /  1012.1hPa WSW 7.0mph /  11.3km/h 12.0mph /  19.3km/h 73% 0.00in /  0mm
02:04 30.3 °F /  -0.9 °C 22.7 °F /  -5.2 °C 29.90in /  1012.4hPa WSW 6.0mph /  9.7km/h 12.0mph /  19.3km/h 73% 0.00in /  0mm
02:09 30.3 °F /  -0.9 °C 22.7 °F /  -5.2 °C 29.90in /  1012.4hPa WSW 5.0mph /  8km/h 13.0mph /  20.9km/h 73% 0.00in /  0mm
02:14 30.2 °F /  -1 °C 22.6 °F /  -5.2 °C 29.91in /  1012.8hPa WSW 3.0mph /  4.8km/h 13.0mph /  20.9km/h 73% 0.00in /  0mm
02:19 30.1 °F /  -1.1 °C 22.8 °F /  -5.1 °C 29.91in /  1012.8hPa WSW 5.0mph /  8km/h 10.0mph /  16.1km/h 74% 0.00in /  0mm
02:24 30.1 °F /  -1.1 °C 22.8 °F /  -5.1 °C 29.91in /  1012.8hPa WSW 3.0mph /  4.8km/h 10.0mph /  16.1km/h 74% 0.00in /  0mm
02:29 30.1 °F /  -1.1 °C 22.8 °F /  -5.1 °C 29.91in /  1012.8hPa West 3.0mph /  4.8km/h 9.0mph /  14.5km/h 74% 0.00in /  0mm
02:34 29.8 °F /  -1.2 °C 22.5 °F /  -5.3 °C 29.92in /  1013.1hPa WSW 2.0mph /  3.2km/h 8.0mph /  12.9km/h 74% 0.00in /  0mm
02:39 29.7 °F /  -1.3 °C 22.4 °F /  -5.3 °C 29.92in /  1013.1hPa WSW 4.0mph /  6.4km/h 9.0mph /  14.5km/h 74% 0.00in /  0mm
02:44 29.7 °F /  -1.3 °C 22.4 °F /  -5.3 °C 29.92in /  1013.1hPa WSW 5.0mph /  8km/h 9.0mph /  14.5km/h 74% 0.00in /  0mm
02:49 29.8 °F /  -1.2 °C 22.5 °F /  -5.3 °C 29.92in /  1013.1hPa West 6.0mph /  9.7km/h 10.0mph /  16.1km/h 74% 0.00in /  0mm
02:54 29.8 °F /  -1.2 °C 22.5 °F /  -5.3 °C 29.92in /  1013.1hPa West 5.0mph /  8km/h 10.0mph /  16.1km/h 74% 0.00in /  0mm
02:59 29.8 °F /  -1.2 °C 22.2 °F /  -5.4 °C 29.93in /  1013.4hPa West 7.0mph /  11.3km/h 11.0mph /  17.7km/h 73% 0.00in /  0mm
03:04 30.1 °F /  -1.1 °C 22.5 °F /  -5.3 °C 29.93in /  1013.4hPa WSW 4.0mph /  6.4km/h 11.0mph /  17.7km/h 73% 0.00in /  0mm
03:09 30.3 °F /  -0.9 °C 22.4 °F /  -5.3 °C 29.93in /  1013.4hPa West 4.0mph /  6.4km/h 13.0mph /  20.9km/h 72% 0.00in /  0mm
03:14 30.5 °F /  -0.8 °C 22.6 °F /  -5.2 °C 29.93in /  1013.4hPa WSW 5.0mph /  8km/h 13.0mph /  20.9km/h 72% 0.00in /  0mm
03:19 30.6 °F /  -0.8 °C 22.7 °F /  -5.2 °C 29.94in /  1013.8hPa WSW 6.0mph /  9.7km/h 9.0mph /  14.5km/h 72% 0.00in /  0mm
03:24 30.8 °F /  -0.7 °C 22.5 °F /  -5.3 °C 29.94in /  1013.8hPa WSW 6.0mph /  9.7km/h 11.0mph /  17.7km/h 71% 0.00in /  0mm
03:29 30.9 °F /  -0.6 °C 22.6 °F /  -5.2 °C 29.94in /  1013.8hPa West 5.0mph /  8km/h 11.0mph /  17.7km/h 71% 0.00in /  0mm
03:34 30.8 °F /  -0.7 °C 22.5 °F /  -5.3 °C 29.94in /  1013.8hPa West 5.0mph /  8km/h 10.0mph /  16.1km/h 71% 0.00in /  0mm
03:39 30.7 °F /  -0.7 °C 22.4 °F /  -5.3 °C 29.94in /  1013.8hPa West 3.0mph /  4.8km/h 10.0mph /  16.1km/h 71% 0.00in /  0mm
03:44 30.6 °F /  -0.8 °C 22.3 °F /  -5.4 °C 29.95in /  1014.1hPa West 4.0mph /  6.4km/h 10.0mph /  16.1km/h 71% 0.00in /  0mm
03:49 30.7 °F /  -0.7 °C 22.7 °F /  -5.2 °C 29.95in /  1014.1hPa WSW 5.0mph /  8km/h 10.0mph /  16.1km/h 72% 0.00in /  0mm
03:54 30.8 °F /  -0.7 °C 22.5 °F /  -5.3 °C 29.95in /  1014.1hPa WSW 6.0mph /  9.7km/h 12.0mph /  19.3km/h 71% 0.00in /  0mm
03:59 30.8 °F /  -0.7 °C 22.5 °F /  -5.3 °C 29.96in /  1014.4hPa WSW 5.0mph /  8km/h 12.0mph /  19.3km/h 71% 0.00in /  0mm
04:04 30.8 °F /  -0.7 °C 22.5 °F /  -5.3 °C 29.96in /  1014.4hPa WSW 7.0mph /  11.3km/h 13.0mph /  20.9km/h 71% 0.00in /  0mm
04:09 30.8 °F /  -0.7 °C 22.5 °F /  -5.3 °C 29.97in /  1014.8hPa West 5.0mph /  8km/h 13.0mph /  20.9km/h 71% 0.00in /  0mm
04:14 30.9 °F /  -0.6 °C 22.6 °F /  -5.2 °C 29.97in /  1014.8hPa West 7.0mph /  11.3km/h 18.0mph /  29km/h 71% 0.00in /  0mm
04:19 31.1 °F /  -0.5 °C 22.8 °F /  -5.1 °C 29.98in /  1015.1hPa West 7.0mph /  11.3km/h 18.0mph /  29km/h 71% 0.00in /  0mm
04:24 31.1 °F /  -0.5 °C 22.8 °F /  -5.1 °C 29.98in /  1015.1hPa SW 4.0mph /  6.4km/h 14.0mph /  22.5km/h 71% 0.00in /  0mm
04:29 31.2 °F /  -0.4 °C 22.9 °F /  -5.1 °C 29.98in /  1015.1hPa WSW 4.0mph /  6.4km/h 13.0mph /  20.9km/h 71% 0.00in /  0mm
04:34 31.2 °F /  -0.4 °C 22.9 °F /  -5.1 °C 29.99in /  1015.5hPa WNW 6.0mph /  9.7km/h 12.0mph /  19.3km/h 71% 0.00in /  0mm
04:39 31.2 °F /  -0.4 °C 22.9 °F /  -5.1 °C 29.99in /  1015.5hPa West 5.0mph /  8km/h 10.0mph /  16.1km/h 71% 0.00in /  0mm
04:44 31.1 °F /  -0.5 °C 22.8 °F /  -5.1 °C 29.99in /  1015.5hPa West 3.0mph /  4.8km/h 10.0mph /  16.1km/h 71% 0.00in /  0mm
04:49 31.1 °F /  -0.5 °C 22.8 °F /  -5.1 °C 29.99in /  1015.5hPa Calm   9.0mph /  14.5km/h 71% 0.00in /  0mm
04:54 31.0 °F /  -0.6 °C 23.0 °F /  -5 °C 30.00in /  1015.8hPa WSW 2.0mph /  3.2km/h 9.0mph /  14.5km/h 72% 0.00in /  0mm
04:59 31.0 °F /  -0.6 °C 23.0 °F /  -5 °C 30.00in /  1015.8hPa West 4.0mph /  6.4km/h 8.0mph /  12.9km/h 72% 0.00in /  0mm
05:04 31.0 °F /  -0.6 °C 23.0 °F /  -5 °C 30.01in /  1016.1hPa West 3.0mph /  4.8km/h 8.0mph /  12.9km/h 72% 0.00in /  0mm
05:09 30.9 °F /  -0.6 °C 22.9 °F /  -5.1 °C 30.01in /  1016.1hPa WNW 4.0mph /  6.4km/h 9.0mph /  14.5km/h 72% 0.00in /  0mm
05:14 30.7 °F /  -0.7 °C 23.1 °F /  -4.9 °C 30.01in /  1016.1hPa WNW 6.0mph /  9.7km/h 9.0mph /  14.5km/h 73% 0.00in /  0mm
05:19 30.6 °F /  -0.8 °C 22.7 °F /  -5.2 °C 30.01in /  1016.1hPa WNW 7.0mph /  11.3km/h 16.0mph /  25.7km/h 72% 0.00in /  0mm
05:24 30.5 °F /  -0.8 °C 22.2 °F /  -5.4 °C 30.02in /  1016.5hPa WNW 8.0mph /  12.9km/h 16.0mph /  25.7km/h 71% 0.00in /  0mm
05:29 30.4 °F /  -0.9 °C 22.1 °F /  -5.5 °C 30.02in /  1016.5hPa West 5.0mph /  8km/h 15.0mph /  24.1km/h 71% 0.00in /  0mm
05:39 30.1 °F /  -1.1 °C 21.8 °F /  -5.7 °C 30.03in /  1016.8hPa WNW 8.0mph /  12.9km/h 13.0mph /  20.9km/h 71% 0.00in /  0mm
05:44 30.1 °F /  -1.1 °C 21.5 °F /  -5.8 °C 30.03in /  1016.8hPa NW 5.0mph /  8km/h 15.0mph /  24.1km/h 70% 0.00in /  0mm
05:49 30.0 °F /  -1.1 °C 21.4 °F /  -5.9 °C 30.04in /  1017.2hPa WNW 6.0mph /  9.7km/h 15.0mph /  24.1km/h 70% 0.00in /  0mm
05:54 29.9 °F /  -1.2 °C 21.3 °F /  -5.9 °C 30.04in /  1017.2hPa WNW 6.0mph /  9.7km/h 13.0mph /  20.9km/h 70% 0.00in /  0mm
05:59 29.8 °F /  -1.2 °C 21.5 °F /  -5.8 °C 30.05in /  1017.5hPa NW 4.0mph /  6.4km/h 11.0mph /  17.7km/h 71% 0.00in /  0mm
06:04 29.6 °F /  -1.3 °C 21.4 °F /  -5.9 °C 30.05in /  1017.5hPa NW 3.0mph /  4.8km/h 7.0mph /  11.3km/h 71% 0.00in /  0mm
06:09 29.4 °F /  -1.4 °C 21.2 °F /  -6 °C 30.05in /  1017.5hPa Calm   6.0mph /  9.7km/h 71% 0.00in /  0mm
06:14 29.2 °F /  -1.6 °C 21.3 °F /  -5.9 °C 30.06in /  1017.8hPa Calm   5.0mph /  8km/h 72% 0.00in /  0mm
06:19 28.9 °F /  -1.7 °C 21.3 °F /  -5.9 °C 30.06in /  1017.8hPa West 2.0mph /  3.2km/h 5.0mph /  8km/h 73% 0.00in /  0mm
06:24 28.8 °F /  -1.8 °C 20.9 °F /  -6.2 °C 30.06in /  1017.8hPa WNW 4.0mph /  6.4km/h 7.0mph /  11.3km/h 72% 0.00in /  0mm
06:29 29.0 °F /  -1.7 °C 20.8 °F /  -6.2 °C 30.07in /  1018.2hPa WNW 7.0mph /  11.3km/h 13.0mph /  20.9km/h 71% 0.00in /  0mm
06:34 29.1 °F /  -1.6 °C 20.5 °F /  -6.4 °C 30.07in /  1018.2hPa NW 3.0mph /  4.8km/h 13.0mph /  20.9km/h 70% 0.00in /  0mm
06:39 29.0 °F /  -1.7 °C 20.4 °F /  -6.4 °C 30.07in /  1018.2hPa Calm   9.0mph /  14.5km/h 70% 0.00in /  0mm
06:44 28.7 °F /  -1.8 °C 20.2 °F /  -6.6 °C 30.07in /  1018.2hPa Calm   5.0mph /  8km/h 70% 0.00in /  0mm
06:49 28.4 °F /  -2 °C 19.9 °F /  -6.7 °C 30.08in /  1018.5hPa Calm   5.0mph /  8km/h 70% 0.00in /  0mm
06:54 28.0 °F /  -2.2 °C 19.8 °F /  -6.8 °C 30.08in /  1018.5hPa Calm   1.0mph /  1.6km/h 71% 0.00in /  0mm
06:59 27.5 °F /  -2.5 °C 19.7 °F /  -6.8 °C 30.08in /  1018.5hPa SW 3.0mph /  4.8km/h 6.0mph /  9.7km/h 72% 0.00in /  0mm
07:04 27.6 °F /  -2.4 °C 19.8 °F /  -6.8 °C 30.09in /  1018.8hPa West 1.0mph /  1.6km/h 6.0mph /  9.7km/h 72% 0.00in /  0mm
07:09 27.6 °F /  -2.4 °C 19.8 °F /  -6.8 °C 30.09in /  1018.8hPa West 2.0mph /  3.2km/h 7.0mph /  11.3km/h 72% 0.00in /  0mm
07:14 27.8 °F /  -2.3 °C 19.6 °F /  -6.9 °C 30.10in /  1019.2hPa West 2.0mph /  3.2km/h 8.0mph /  12.9km/h 71% 0.00in /  0mm
07:19 28.2 °F /  -2.1 °C 19.7 °F /  -6.8 °C 30.10in /  1019.2hPa West 3.0mph /  4.8km/h 8.0mph /  12.9km/h 70% 0.00in /  0mm
07:24 28.3 °F /  -2.1 °C 19.8 °F /  -6.8 °C 30.10in /  1019.2hPa West 2.0mph /  3.2km/h 7.0mph /  11.3km/h 70% 0.00in /  0mm
07:29 28.4 °F /  -2 °C 19.9 °F /  -6.7 °C 30.11in /  1019.5hPa WSW 2.0mph /  3.2km/h 7.0mph /  11.3km/h 70% 0.00in /  0mm
07:34 28.5 °F /  -1.9 °C 19.6 °F /  -6.9 °C 30.11in /  1019.5hPa West 2.0mph /  3.2km/h 8.0mph /  12.9km/h 69% 0.00in /  0mm
07:44 28.7 °F /  -1.8 °C 19.8 °F /  -6.8 °C 30.11in /  1019.5hPa Calm   11.0mph /  17.7km/h 69% 0.00in /  0mm
07:49 28.4 °F /  -2 °C 19.9 °F /  -6.7 °C 30.11in /  1019.5hPa West 1.0mph /  1.6km/h 5.0mph /  8km/h 70% 0.00in /  0mm
07:54 28.3 °F /  -2.1 °C 19.8 °F /  -6.8 °C 30.12in /  1019.9hPa West 2.0mph /  3.2km/h 5.0mph /  8km/h 70% 0.00in /  0mm
07:59 28.3 °F /  -2.1 °C 20.1 °F /  -6.6 °C 30.12in /  1019.9hPa WNW 2.0mph /  3.2km/h 6.0mph /  9.7km/h 71% 0.00in /  0mm
08:04 28.5 °F /  -1.9 °C 20.3 °F /  -6.5 °C 30.13in /  1020.2hPa WNW 2.0mph /  3.2km/h 8.0mph /  12.9km/h 71% 0.00in /  0mm
08:09 28.8 °F /  -1.8 °C 20.6 °F /  -6.3 °C 30.13in /  1020.2hPa WNW 4.0mph /  6.4km/h 8.0mph /  12.9km/h 71% 0.00in /  0mm
08:14 29.2 °F /  -1.6 °C 21.0 °F /  -6.1 °C 30.13in /  1020.2hPa West 3.0mph /  4.8km/h 6.0mph /  9.7km/h 71% 0.00in /  0mm
08:19 29.5 °F /  -1.4 °C 21.3 °F /  -5.9 °C 30.14in /  1020.5hPa Calm   6.0mph /  9.7km/h 71% 0.00in /  0mm
08:24 29.7 °F /  -1.3 °C 21.5 °F /  -5.8 °C 30.14in /  1020.5hPa West 1.0mph /  1.6km/h 4.0mph /  6.4km/h 71% 0.00in /  0mm
08:29 30.0 °F /  -1.1 °C 21.7 °F /  -5.7 °C 30.14in /  1020.5hPa SW 2.0mph /  3.2km/h 5.0mph /  8km/h 71% 0.00in /  0mm
08:34 30.3 °F /  -0.9 °C 22.0 °F /  -5.6 °C 30.15in /  1020.9hPa WSW 1.0mph /  1.6km/h 5.0mph /  8km/h 71% 0.00in /  0mm
08:39 30.5 °F /  -0.8 °C 21.9 °F /  -5.6 °C 30.15in /  1020.9hPa West 3.0mph /  4.8km/h 6.0mph /  9.7km/h 70% 0.00in /  0mm
08:44 30.8 °F /  -0.7 °C 22.2 °F /  -5.4 °C 30.15in /  1020.9hPa WSW 3.0mph /  4.8km/h 7.0mph /  11.3km/h 70% 0.00in /  0mm
08:49 31.2 °F /  -0.4 °C 22.2 °F /  -5.4 °C 30.15in /  1020.9hPa West 4.0mph /  6.4km/h 9.0mph /  14.5km/h 69% 0.00in /  0mm
08:54 31.4 °F /  -0.3 °C 22.1 °F /  -5.5 °C 30.16in /  1021.2hPa West 4.0mph /  6.4km/h 11.0mph /  17.7km/h 68% 0.00in /  0mm
08:59 31.5 °F /  -0.3 °C 22.2 °F /  -5.4 °C 30.16in /  1021.2hPa West 4.0mph /  6.4km/h 11.0mph /  17.7km/h 68% 0.00in /  0mm
09:04 31.5 °F /  -0.3 °C 22.2 °F /  -5.4 °C 30.16in /  1021.2hPa WSW 2.0mph /  3.2km/h 6.0mph /  9.7km/h 68% 0.00in /  0mm
09:09 31.6 °F /  -0.2 °C 22.3 °F /  -5.4 °C 30.16in /  1021.2hPa Calm   6.0mph /  9.7km/h 68% 0.00in /  0mm
09:14 31.8 °F /  -0.1 °C 22.4 °F /  -5.3 °C 30.16in /  1021.2hPa WSW 2.0mph /  3.2km/h 5.0mph /  8km/h 68% 0.00in /  0mm
09:20 32.1 °F /  0.1 °C 22.7 °F /  -5.2 °C 30.16in /  1021.2hPa West 2.0mph /  3.2km/h 6.0mph /  9.7km/h 68% 0.00in /  0mm
09:29 32.8 °F /  0.4 °C 22.7 °F /  -5.2 °C 30.16in /  1021.2hPa West 4.0mph /  6.4km/h 7.0mph /  11.3km/h 66% 0.00in /  0mm
09:34 32.6 °F /  0.3 °C 22.5 °F /  -5.3 °C 30.16in /  1021.2hPa WNW 3.0mph /  4.8km/h 7.0mph /  11.3km/h 66% 0.00in /  0mm
09:39 32.5 °F /  0.3 °C 22.4 °F /  -5.3 °C 30.17in /  1021.6hPa WNW 3.0mph /  4.8km/h 7.0mph /  11.3km/h 66% 0.00in /  0mm
09:44 32.6 °F /  0.3 °C 22.9 °F /  -5.1 °C 30.17in /  1021.6hPa West 5.0mph /  8km/h 8.0mph /  12.9km/h 67% 0.00in /  0mm
09:49 32.6 °F /  0.3 °C 22.9 °F /  -5.1 °C 30.17in /  1021.6hPa WSW 5.0mph /  8km/h 12.0mph /  19.3km/h 67% 0.00in /  0mm
09:54 32.7 °F /  0.4 °C 23.0 °F /  -5 °C 30.17in /  1021.6hPa WSW 1.0mph /  1.6km/h 12.0mph /  19.3km/h 67% 0.00in /  0mm
09:59 33.0 °F /  0.6 °C 22.9 °F /  -5.1 °C 30.17in /  1021.6hPa West 2.0mph /  3.2km/h 7.0mph /  11.3km/h 66% 0.00in /  0mm
10:04 33.0 °F /  0.6 °C 23.2 °F /  -4.9 °C 30.17in /  1021.6hPa WSW 3.0mph /  4.8km/h 6.0mph /  9.7km/h 67% 0.00in /  0mm
10:09 33.2 °F /  0.7 °C 23.4 °F /  -4.8 °C 30.17in /  1021.6hPa Calm   6.0mph /  9.7km/h 67% 0.00in /  0mm
10:14 33.3 °F /  0.7 °C 23.5 °F /  -4.7 °C 30.17in /  1021.6hPa WNW 2.0mph /  3.2km/h 6.0mph /  9.7km/h 67% 0.00in /  0mm
10:19 33.8 °F /  1 °C 24.4 °F /  -4.2 °C 30.17in /  1021.6hPa WSW 5.0mph /  8km/h 9.0mph /  14.5km/h 68% 0.00in /  0mm
10:24 33.9 °F /  1.1 °C 24.5 °F /  -4.2 °C 30.17in /  1021.6hPa West 4.0mph /  6.4km/h 9.0mph /  14.5km/h 68% 0.00in /  0mm
10:29 34.0 °F /  1.1 °C 23.8 °F /  -4.6 °C 30.17in /  1021.6hPa WSW 5.0mph /  8km/h 10.0mph /  16.1km/h 66% 0.00in /  0mm
10:34 33.4 °F /  0.8 °C 24.0 °F /  -4.4 °C 30.17in /  1021.6hPa WNW 5.0mph /  8km/h 10.0mph /  16.1km/h 68% 0.00in /  0mm
10:39 33.1 °F /  0.6 °C 24.0 °F /  -4.4 °C 30.17in /  1021.6hPa NW 3.0mph /  4.8km/h 8.0mph /  12.9km/h 69% 0.00in /  0mm
10:44 33.3 °F /  0.7 °C 24.6 °F /  -4.1 °C 30.17in /  1021.6hPa West 3.0mph /  4.8km/h 8.0mph /  12.9km/h 70% 0.00in /  0mm
10:49 33.7 °F /  0.9 °C 24.3 °F /  -4.3 °C 30.17in /  1021.6hPa WNW 3.0mph /  4.8km/h 7.0mph /  11.3km/h 68% 0.00in /  0mm
10:54 34.4 °F /  1.3 °C 24.9 °F /  -3.9 °C 30.17in /  1021.6hPa West 5.0mph /  8km/h 8.0mph /  12.9km/h 68% 0.00in /  0mm
10:59 35.3 °F /  1.8 °C 24.3 °F /  -4.3 °C 30.17in /  1021.6hPa WSW 8.0mph /  12.9km/h 13.0mph /  20.9km/h 64% 0.00in /  0mm
11:04 35.5 °F /  1.9 °C 24.2 °F /  -4.3 °C 30.17in /  1021.6hPa West 7.0mph /  11.3km/h 13.0mph /  20.9km/h 63% 0.00in /  0mm
11:09 36.1 °F /  2.3 °C 24.3 °F /  -4.3 °C 30.17in /  1021.6hPa West 7.0mph /  11.3km/h 13.0mph /  20.9km/h 62% 0.00in /  0mm
11:14 36.6 °F /  2.6 °C 24.8 °F /  -4 °C 30.18in /  1021.9hPa WNW 7.0mph /  11.3km/h 12.0mph /  19.3km/h 62% 0.00in /  0mm
11:19 37.0 °F /  2.8 °C 24.0 °F /  -4.4 °C 30.18in /  1021.9hPa WNW 9.0mph /  14.5km/h 17.0mph /  27.4km/h 59% 0.00in /  0mm
11:24 37.1 °F /  2.8 °C 24.5 °F /  -4.2 °C 30.18in /  1021.9hPa West 7.0mph /  11.3km/h 17.0mph /  27.4km/h 60% 0.00in /  0mm
11:29 37.1 °F /  2.8 °C 23.7 °F /  -4.6 °C 30.18in /  1021.9hPa WNW 7.0mph /  11.3km/h 16.0mph /  25.7km/h 58% 0.00in /  0mm
11:34 36.1 °F /  2.3 °C 22.7 °F /  -5.2 °C 30.18in /  1021.9hPa West 10.0mph /  16.1km/h 18.0mph /  29km/h 58% 0.00in /  0mm
11:39 35.4 °F /  1.9 °C 22.9 °F /  -5.1 °C 30.18in /  1021.9hPa West 7.0mph /  11.3km/h 18.0mph /  29km/h 60% 0.00in /  0mm
11:44 35.3 °F /  1.8 °C 22.8 °F /  -5.1 °C 30.18in /  1021.9hPa WNW 9.0mph /  14.5km/h 16.0mph /  25.7km/h 60% 0.00in /  0mm
11:49 35.5 °F /  1.9 °C 23.0 °F /  -5 °C 30.18in /  1021.9hPa West 9.0mph /  14.5km/h 16.0mph /  25.7km/h 60% 0.00in /  0mm
11:54 35.6 °F /  2 °C 23.5 °F /  -4.7 °C 30.18in /  1021.9hPa WSW 6.0mph /  9.7km/h 14.0mph /  22.5km/h 61% 0.00in /  0mm
11:59 35.5 °F /  1.9 °C 23.0 °F /  -5 °C 30.18in /  1021.9hPa West 7.0mph /  11.3km/h 14.0mph /  22.5km/h 60% 0.00in /  0mm
12:04 36.2 °F /  2.3 °C 23.7 °F /  -4.6 °C 30.19in /  1022.2hPa West 7.0mph /  11.3km/h 14.0mph /  22.5km/h 60% 0.00in /  0mm
12:09 35.9 °F /  2.2 °C 22.6 °F /  -5.2 °C 30.19in /  1022.2hPa West 8.0mph /  12.9km/h 17.0mph /  27.4km/h 58% 0.00in /  0mm
12:14 35.6 °F /  2 °C 22.7 °F /  -5.2 °C 30.19in /  1022.2hPa WNW 7.0mph /  11.3km/h 17.0mph /  27.4km/h 59% 0.00in /  0mm
12:19 35.8 °F /  2.1 °C 23.3 °F /  -4.8 °C 30.19in /  1022.2hPa West 6.0mph /  9.7km/h 13.0mph /  20.9km/h 60% 0.00in /  0mm
12:24 35.7 °F /  2.1 °C 22.4 °F /  -5.3 °C 30.19in /  1022.2hPa West 8.0mph /  12.9km/h 17.0mph /  27.4km/h 58% 0.00in /  0mm
12:29 35.5 °F /  1.9 °C 21.8 °F /  -5.7 °C 30.19in /  1022.2hPa WNW 11.0mph /  17.7km/h 17.0mph /  27.4km/h 57% 0.00in /  0mm
12:34 36.4 °F /  2.4 °C 23.4 °F /  -4.8 °C 30.19in /  1022.2hPa WNW 5.0mph /  8km/h 17.0mph /  27.4km/h 59% 0.00in /  0mm
12:39 37.0 °F /  2.8 °C 22.8 °F /  -5.1 °C 30.19in /  1022.2hPa West 10.0mph /  16.1km/h 15.0mph /  24.1km/h 56% 0.00in /  0mm
12:44 36.7 °F /  2.6 °C 21.6 °F /  -5.8 °C 30.19in /  1022.2hPa West 10.0mph /  16.1km/h 17.0mph /  27.4km/h 54% 0.00in /  0mm
12:49 36.4 °F /  2.4 °C 22.2 °F /  -5.4 °C 30.19in /  1022.2hPa WSW 5.0mph /  8km/h 17.0mph /  27.4km/h 56% 0.00in /  0mm
12:54 36.4 °F /  2.4 °C 21.8 °F /  -5.7 °C 30.19in /  1022.2hPa WSW 8.0mph /  12.9km/h 13.0mph /  20.9km/h 55% 0.00in /  0mm
12:59 37.1 °F /  2.8 °C 23.3 °F /  -4.8 °C 30.19in /  1022.2hPa WSW 6.0mph /  9.7km/h 14.0mph /  22.5km/h 57% 0.00in /  0mm
13:04 37.8 °F /  3.2 °C 22.6 °F /  -5.2 °C 30.19in /  1022.2hPa WSW 7.0mph /  11.3km/h 16.0mph /  25.7km/h 54% 0.00in /  0mm
13:09 37.6 °F /  3.1 °C 21.6 °F /  -5.8 °C 30.20in /  1022.6hPa WNW 9.0mph /  14.5km/h 16.0mph /  25.7km/h 52% 0.00in /  0mm
13:14 37.5 °F /  3.1 °C 21.5 °F /  -5.8 °C 30.19in /  1022.2hPa West 7.0mph /  11.3km/h 16.0mph /  25.7km/h 52% 0.00in /  0mm
13:19 37.9 °F /  3.3 °C 21.8 °F /  -5.7 °C 30.20in /  1022.6hPa WNW 6.0mph /  9.7km/h 17.0mph /  27.4km/h 52% 0.00in /  0mm
13:24 38.3 °F /  3.5 °C 21.8 °F /  -5.7 °C 30.19in /  1022.2hPa WSW 7.0mph /  11.3km/h 17.0mph /  27.4km/h 51% 0.00in /  0mm
13:29 38.8 °F /  3.8 °C 21.7 °F /  -5.7 °C 30.19in /  1022.2hPa West 8.0mph /  12.9km/h 13.0mph /  20.9km/h 50% 0.00in /  0mm
13:34 39.0 °F /  3.9 °C 21.9 °F /  -5.6 °C 30.19in /  1022.2hPa West 6.0mph /  9.7km/h 13.0mph /  20.9km/h 50% 0.00in /  0mm
13:39 38.8 °F /  3.8 °C 21.3 °F /  -5.9 °C 30.19in /  1022.2hPa SW 9.0mph /  14.5km/h 17.0mph /  27.4km/h 49% 0.00in /  0mm
13:44 37.8 °F /  3.2 °C 20.8 °F /  -6.2 °C 30.19in /  1022.2hPa WNW 6.0mph /  9.7km/h 17.0mph /  27.4km/h 50% 0.00in /  0mm
13:49 37.9 °F /  3.3 °C 20.9 °F /  -6.2 °C 30.19in /  1022.2hPa WNW 8.0mph /  12.9km/h 15.0mph /  24.1km/h 50% 0.00in /  0mm
13:54 38.2 °F /  3.4 °C 20.7 °F /  -6.3 °C 30.19in /  1022.2hPa West 6.0mph /  9.7km/h 15.0mph /  24.1km/h 49% 0.00in /  0mm
13:59 38.4 °F /  3.6 °C 20.4 °F /  -6.4 °C 30.19in /  1022.2hPa West 6.0mph /  9.7km/h 15.0mph /  24.1km/h 48% 0.00in /  0mm
14:04 38.6 °F /  3.7 °C 20.6 °F /  -6.3 °C 30.19in /  1022.2hPa West 7.0mph /  11.3km/h 12.0mph /  19.3km/h 48% 0.00in /  0mm
14:09 38.8 °F /  3.8 °C 20.8 °F /  -6.2 °C 30.18in /  1021.9hPa WNW 6.0mph /  9.7km/h 12.0mph /  19.3km/h 48% 0.00in /  0mm
14:14 38.4 °F /  3.6 °C 20.9 °F /  -6.2 °C 30.18in /  1021.9hPa West 6.0mph /  9.7km/h 11.0mph /  17.7km/h 49% 0.00in /  0mm
14:19 37.4 °F /  3 °C 20.0 °F /  -6.7 °C 30.19in /  1022.2hPa West 6.0mph /  9.7km/h 12.0mph /  19.3km/h 49% 0.00in /  0mm
14:24 36.7 °F /  2.6 °C 19.3 °F /  -7.1 °C 30.19in /  1022.2hPa West 8.0mph /  12.9km/h 15.0mph /  24.1km/h 49% 0.00in /  0mm
14:29 36.4 °F /  2.4 °C 19.5 °F /  -6.9 °C 30.19in /  1022.2hPa West 6.0mph /  9.7km/h 15.0mph /  24.1km/h 50% 0.00in /  0mm
14:35 36.4 °F /  2.4 °C 20.0 °F /  -6.7 °C 30.19in /  1022.2hPa West 6.0mph /  9.7km/h 12.0mph /  19.3km/h 51% 0.00in /  0mm
14:44 36.6 °F /  2.6 °C 20.6 °F /  -6.3 °C 30.19in /  1022.2hPa WSW 5.0mph /  8km/h 12.0mph /  19.3km/h 52% 0.00in /  0mm
14:49 36.6 °F /  2.6 °C 20.6 °F /  -6.3 °C 30.19in /  1022.2hPa West 4.0mph /  6.4km/h 12.0mph /  19.3km/h 52% 0.00in /  0mm
14:54 36.6 °F /  2.6 °C 20.6 °F /  -6.3 °C 30.19in /  1022.2hPa WSW 5.0mph /  8km/h 9.0mph /  14.5km/h 52% 0.00in /  0mm
14:59 36.7 °F /  2.6 °C 20.7 °F /  -6.3 °C 30.20in /  1022.6hPa WSW 4.0mph /  6.4km/h 9.0mph /  14.5km/h 52% 0.00in /  0mm
15:04 36.8 °F /  2.7 °C 20.4 °F /  -6.4 °C 30.20in /  1022.6hPa West 4.0mph /  6.4km/h 9.0mph /  14.5km/h 51% 0.00in /  0mm
15:09 36.9 °F /  2.7 °C 20.9 °F /  -6.2 °C 30.20in /  1022.6hPa WNW 3.0mph /  4.8km/h 10.0mph /  16.1km/h 52% 0.00in /  0mm
15:14 36.9 °F /  2.7 °C 20.5 °F /  -6.4 °C 30.20in /  1022.6hPa WSW 5.0mph /  8km/h 10.0mph /  16.1km/h 51% 0.00in /  0mm
15:19 37.0 °F /  2.8 °C 20.5 °F /  -6.4 °C 30.20in /  1022.6hPa WSW 5.0mph /  8km/h 9.0mph /  14.5km/h 51% 0.00in /  0mm
15:24 37.5 °F /  3.1 °C 20.5 °F /  -6.4 °C 30.20in /  1022.6hPa West 5.0mph /  8km/h 11.0mph /  17.7km/h 50% 0.00in /  0mm
15:29 37.5 °F /  3.1 °C 20.1 °F /  -6.6 °C 30.20in /  1022.6hPa West 4.0mph /  6.4km/h 12.0mph /  19.3km/h 49% 0.00in /  0mm
15:34 37.2 °F /  2.9 °C 20.7 °F /  -6.3 °C 30.20in /  1022.6hPa West 3.0mph /  4.8km/h 12.0mph /  19.3km/h 51% 0.00in /  0mm
15:39 37.0 °F /  2.8 °C 20.1 °F /  -6.6 °C 30.20in /  1022.6hPa WSW 5.0mph /  8km/h 10.0mph /  16.1km/h 50% 0.00in /  0mm
15:44 36.8 °F /  2.7 °C 19.9 °F /  -6.7 °C 30.20in /  1022.6hPa SW 3.0mph /  4.8km/h 9.0mph /  14.5km/h 50% 0.00in /  0mm
15:49 36.6 °F /  2.6 °C 19.7 °F /  -6.8 °C 30.20in /  1022.6hPa WSW 3.0mph /  4.8km/h 7.0mph /  11.3km/h 50% 0.00in /  0mm
15:54 36.4 °F /  2.4 °C 20.0 °F /  -6.7 °C 30.20in /  1022.6hPa WSW 4.0mph /  6.4km/h 8.0mph /  12.9km/h 51% 0.00in /  0mm
15:59 36.4 °F /  2.4 °C 20.0 °F /  -6.7 °C 30.20in /  1022.6hPa WSW 2.0mph /  3.2km/h 8.0mph /  12.9km/h 51% 0.00in /  0mm
16:04 36.3 °F /  2.4 °C 20.4 °F /  -6.4 °C 30.20in /  1022.6hPa Calm   6.0mph /  9.7km/h 52% 0.00in /  0mm
16:09 36.2 °F /  2.3 °C 20.3 °F /  -6.5 °C 30.20in /  1022.6hPa Calm   6.0mph /  9.7km/h 52% 0.00in /  0mm
16:14 36.1 °F /  2.3 °C 21.1 °F /  -6.1 °C 30.20in /  1022.6hPa Calm   6.0mph /  9.7km/h 54% 0.00in /  0mm
16:19 35.9 °F /  2.2 °C 20.4 °F /  -6.4 °C 30.21in /  1022.9hPa Calm   4.0mph /  6.4km/h 53% 0.00in /  0mm
16:24 35.9 °F /  2.2 °C 20.4 °F /  -6.4 °C 30.21in /  1022.9hPa Calm   4.0mph /  6.4km/h 53% 0.00in /  0mm
16:29 35.8 °F /  2.1 °C 20.8 °F /  -6.2 °C 30.21in /  1022.9hPa Calm   4.0mph /  6.4km/h 54% 0.00in /  0mm
16:34 35.7 °F /  2.1 °C 21.1 °F /  -6.1 °C 30.21in /  1022.9hPa WSW 1.0mph /  1.6km/h 4.0mph /  6.4km/h 55% 0.00in /  0mm
16:39 35.7 °F /  2.1 °C 20.7 °F /  -6.3 °C 30.22in /  1023.2hPa SW 1.0mph /  1.6km/h 8.0mph /  12.9km/h 54% 0.00in /  0mm
16:44 35.9 °F /  2.2 °C 20.4 °F /  -6.4 °C 30.22in /  1023.2hPa WSW 6.0mph /  9.7km/h 11.0mph /  17.7km/h 53% 0.00in /  0mm
16:49 36.2 °F /  2.3 °C 20.3 °F /  -6.5 °C 30.22in /  1023.2hPa SW 7.0mph /  11.3km/h 11.0mph /  17.7km/h 52% 0.00in /  0mm
16:54 36.5 °F /  2.5 °C 20.5 °F /  -6.4 °C 30.22in /  1023.2hPa WSW 6.0mph /  9.7km/h 14.0mph /  22.5km/h 52% 0.00in /  0mm
16:59 36.7 °F /  2.6 °C 20.3 °F /  -6.5 °C 30.22in /  1023.2hPa WSW 4.0mph /  6.4km/h 14.0mph /  22.5km/h 51% 0.00in /  0mm
17:04 36.7 °F /  2.6 °C 20.7 °F /  -6.3 °C 30.23in /  1023.6hPa WSW 6.0mph /  9.7km/h 12.0mph /  19.3km/h 52% 0.00in /  0mm
17:09 36.8 °F /  2.7 °C 20.4 °F /  -6.4 °C 30.23in /  1023.6hPa West 8.0mph /  12.9km/h 14.0mph /  22.5km/h 51% 0.00in /  0mm
17:14 36.8 °F /  2.7 °C 20.8 °F /  -6.2 °C 30.23in /  1023.6hPa WSW 8.0mph /  12.9km/h 15.0mph /  24.1km/h 52% 0.00in /  0mm
17:19 36.8 °F /  2.7 °C 20.8 °F /  -6.2 °C 30.24in /  1023.9hPa West 6.0mph /  9.7km/h 15.0mph /  24.1km/h 52% 0.00in /  0mm
17:24 37.0 °F /  2.8 °C 21.0 °F /  -6.1 °C 30.24in /  1023.9hPa West 4.0mph /  6.4km/h 15.0mph /  24.1km/h 52% 0.00in /  0mm
17:29 36.9 °F /  2.7 °C 20.9 °F /  -6.2 °C 30.23in /  1023.6hPa West 5.0mph /  8km/h 15.0mph /  24.1km/h 52% 0.00in /  0mm
17:34 36.8 °F /  2.7 °C 21.3 °F /  -5.9 °C 30.23in /  1023.6hPa West 5.0mph /  8km/h 9.0mph /  14.5km/h 53% 0.00in /  0mm
17:39 36.8 °F /  2.7 °C 21.3 °F /  -5.9 °C 30.23in /  1023.6hPa WSW 4.0mph /  6.4km/h 8.0mph /  12.9km/h 53% 0.00in /  0mm
17:44 36.6 °F /  2.6 °C 21.5 °F /  -5.8 °C 30.23in /  1023.6hPa WSW 3.0mph /  4.8km/h 8.0mph /  12.9km/h 54% 0.00in /  0mm
17:49 36.4 °F /  2.4 °C 21.3 °F /  -5.9 °C 30.23in /  1023.6hPa West 2.0mph /  3.2km/h 7.0mph /  11.3km/h 54% 0.00in /  0mm
17:54 36.2 °F /  2.3 °C 21.6 °F /  -5.8 °C 30.24in /  1023.9hPa SW 2.0mph /  3.2km/h 7.0mph /  11.3km/h 55% 0.00in /  0mm
17:59 36.1 °F /  2.3 °C 21.9 °F /  -5.6 °C 30.24in /  1023.9hPa West 3.0mph /  4.8km/h 11.0mph /  17.7km/h 56% 0.00in /  0mm
18:04 36.2 °F /  2.3 °C 22.0 °F /  -5.6 °C 30.24in /  1023.9hPa WSW 4.0mph /  6.4km/h 11.0mph /  17.7km/h 56% 0.00in /  0mm
18:09 36.1 °F /  2.3 °C 22.3 °F /  -5.4 °C 30.24in /  1023.9hPa WSW 7.0mph /  11.3km/h 14.0mph /  22.5km/h 57% 0.00in /  0mm
18:14 35.9 °F /  2.2 °C 22.6 °F /  -5.2 °C 30.23in /  1023.6hPa WSW 5.0mph /  8km/h 14.0mph /  22.5km/h 58% 0.00in /  0mm
18:19 35.8 °F /  2.1 °C 22.9 °F /  -5.1 °C 30.23in /  1023.6hPa WSW 6.0mph /  9.7km/h 12.0mph /  19.3km/h 59% 0.00in /  0mm
18:24 35.7 °F /  2.1 °C 22.8 °F /  -5.1 °C 30.23in /  1023.6hPa WSW 7.0mph /  11.3km/h 13.0mph /  20.9km/h 59% 0.00in /  0mm
18:29 35.6 °F /  2 °C 22.7 °F /  -5.2 °C 30.23in /  1023.6hPa West 7.0mph /  11.3km/h 16.0mph /  25.7km/h 59% 0.00in /  0mm
18:34 35.3 °F /  1.8 °C 22.4 °F /  -5.3 °C 30.23in /  1023.6hPa WSW 8.0mph /  12.9km/h 16.0mph /  25.7km/h 59% 0.00in /  0mm
18:39 35.2 °F /  1.8 °C 22.7 °F /  -5.2 °C 30.23in /  1023.6hPa WSW 1.0mph /  1.6km/h 15.0mph /  24.1km/h 60% 0.00in /  0mm
18:44 34.7 °F /  1.5 °C 22.6 °F /  -5.2 °C 30.23in /  1023.6hPa WSW 5.0mph /  8km/h 13.0mph /  20.9km/h 61% 0.00in /  0mm
18:49 34.6 °F /  1.4 °C 22.5 °F /  -5.3 °C 30.23in /  1023.6hPa WSW 2.0mph /  3.2km/h 13.0mph /  20.9km/h 61% 0.00in /  0mm
18:54 34.4 °F /  1.3 °C 22.7 °F /  -5.2 °C 30.23in /  1023.6hPa WSW 4.0mph /  6.4km/h 8.0mph /  12.9km/h 62% 0.00in /  0mm
18:59 34.1 °F /  1.2 °C 22.4 °F /  -5.3 °C 30.23in /  1023.6hPa WSW 3.0mph /  4.8km/h 13.0mph /  20.9km/h 62% 0.00in /  0mm
19:04 33.7 °F /  0.9 °C 22.4 °F /  -5.3 °C 30.23in /  1023.6hPa WSW 3.0mph /  4.8km/h 13.0mph /  20.9km/h 63% 0.00in /  0mm
19:09 33.6 °F /  0.9 °C 22.4 °F /  -5.3 °C 30.23in /  1023.6hPa SW 4.0mph /  6.4km/h 8.0mph /  12.9km/h 63% 0.00in /  0mm
19:14 33.7 °F /  0.9 °C 22.1 °F /  -5.5 °C 30.23in /  1023.6hPa SW 4.0mph /  6.4km/h 9.0mph /  14.5km/h 62% 0.00in /  0mm
19:19 33.8 °F /  1 °C 22.2 °F /  -5.4 °C 30.23in /  1023.6hPa SW 1.0mph /  1.6km/h 10.0mph /  16.1km/h 62% 0.00in /  0mm
19:24 33.7 °F /  0.9 °C 22.1 °F /  -5.5 °C 30.23in /  1023.6hPa WSW 1.0mph /  1.6km/h 10.0mph /  16.1km/h 62% 0.00in /  0mm
19:29 33.4 °F /  0.8 °C 21.8 °F /  -5.7 °C 30.23in /  1023.6hPa SW 2.0mph /  3.2km/h 10.0mph /  16.1km/h 62% 0.00in /  0mm
19:34 33.0 °F /  0.6 °C 21.8 °F /  -5.7 °C 30.23in /  1023.6hPa SSW 1.0mph /  1.6km/h 5.0mph /  8km/h 63% 0.00in /  0mm
19:39 33.0 °F /  0.6 °C 21.8 °F /  -5.7 °C 30.23in /  1023.6hPa SW 2.0mph /  3.2km/h 6.0mph /  9.7km/h 63% 0.00in /  0mm
19:44 33.0 °F /  0.6 °C 21.8 °F /  -5.7 °C 30.23in /  1023.6hPa SW 2.0mph /  3.2km/h 6.0mph /  9.7km/h 63% 0.00in /  0mm
19:49 32.9 °F /  0.5 °C 22.1 °F /  -5.5 °C 30.23in /  1023.6hPa SW 3.0mph /  4.8km/h 8.0mph /  12.9km/h 64% 0.00in /  0mm
19:54 33.0 °F /  0.6 °C 22.2 °F /  -5.4 °C 30.23in /  1023.6hPa SSW 7.0mph /  11.3km/h 11.0mph /  17.7km/h 64% 0.00in /  0mm
19:59 33.3 °F /  0.7 °C 22.4 °F /  -5.3 °C 30.23in /  1023.6hPa SSW 5.0mph /  8km/h 11.0mph /  17.7km/h 64% 0.00in /  0mm
20:04 33.1 °F /  0.6 °C 22.6 °F /  -5.2 °C 30.23in /  1023.6hPa SSW 4.0mph /  6.4km/h 10.0mph /  16.1km/h 65% 0.00in /  0mm
20:09 32.9 °F /  0.5 °C 22.4 °F /  -5.3 °C 30.23in /  1023.6hPa SW 5.0mph /  8km/h 10.0mph /  16.1km/h 65% 0.00in /  0mm
20:14 32.7 °F /  0.4 °C 22.2 °F /  -5.4 °C 30.23in /  1023.6hPa SW 4.0mph /  6.4km/h 10.0mph /  16.1km/h 65% 0.00in /  0mm
20:19 32.5 °F /  0.3 °C 22.4 °F /  -5.3 °C 30.23in /  1023.6hPa SSW 5.0mph /  8km/h 9.0mph /  14.5km/h 66% 0.00in /  0mm
20:24 32.5 °F /  0.3 °C 22.4 °F /  -5.3 °C 30.23in /  1023.6hPa SSW 6.0mph /  9.7km/h 11.0mph /  17.7km/h 66% 0.00in /  0mm
20:29 32.4 °F /  0.2 °C 22.3 °F /  -5.4 °C 30.23in /  1023.6hPa SSW 4.0mph /  6.4km/h 12.0mph /  19.3km/h 66% 0.00in /  0mm
20:34 32.1 °F /  0.1 °C 22.0 °F /  -5.6 °C 30.23in /  1023.6hPa SSW 3.0mph /  4.8km/h 12.0mph /  19.3km/h 66% 0.00in /  0mm
20:39 32.0 °F /  0 °C 22.3 °F /  -5.4 °C 30.23in /  1023.6hPa SSW 6.0mph /  9.7km/h 12.0mph /  19.3km/h 67% 0.00in /  0mm
20:44 31.8 °F /  -0.1 °C 22.1 °F /  -5.5 °C 30.23in /  1023.6hPa SSW 4.0mph /  6.4km/h 11.0mph /  17.7km/h 67% 0.00in /  0mm
20:49 31.7 °F /  -0.2 °C 22.0 °F /  -5.6 °C 30.23in /  1023.6hPa SSW 6.0mph /  9.7km/h 11.0mph /  17.7km/h 67% 0.00in /  0mm
20:54 31.7 °F /  -0.2 °C 22.0 °F /  -5.6 °C 30.23in /  1023.6hPa SW 6.0mph /  9.7km/h 11.0mph /  17.7km/h 67% 0.00in /  0mm
20:59 31.7 °F /  -0.2 °C 21.6 °F /  -5.8 °C 30.23in /  1023.6hPa SSW 5.0mph /  8km/h 11.0mph /  17.7km/h 66% 0.00in /  0mm
21:04 31.7 °F /  -0.2 °C 21.6 °F /  -5.8 °C 30.23in /  1023.6hPa SSW 4.0mph /  6.4km/h 12.0mph /  19.3km/h 66% 0.00in /  0mm
21:09 31.7 °F /  -0.2 °C 21.6 °F /  -5.8 °C 30.23in /  1023.6hPa SSW 5.0mph /  8km/h 12.0mph /  19.3km/h 66% 0.00in /  0mm
21:14 31.7 °F /  -0.2 °C 21.6 °F /  -5.8 °C 30.23in /  1023.6hPa SW 7.0mph /  11.3km/h 11.0mph /  17.7km/h 66% 0.00in /  0mm
21:19 32.0 °F /  0 °C 21.6 °F /  -5.8 °C 30.23in /  1023.6hPa SW 7.0mph /  11.3km/h 12.0mph /  19.3km/h 65% 0.00in /  0mm
21:24 32.1 °F /  0.1 °C 21.3 °F /  -5.9 °C 30.23in /  1023.6hPa SSW 7.0mph /  11.3km/h 12.0mph /  19.3km/h 64% 0.00in /  0mm
21:29 32.0 °F /  0 °C 21.2 °F /  -6 °C 30.23in /  1023.6hPa SSW 4.0mph /  6.4km/h 11.0mph /  17.7km/h 64% 0.00in /  0mm
21:34 32.0 °F /  0 °C 21.2 °F /  -6 °C 30.23in /  1023.6hPa SSW 5.0mph /  8km/h 10.0mph /  16.1km/h 64% 0.00in /  0mm
21:39 31.9 °F /  -0.1 °C 21.1 °F /  -6.1 °C 30.23in /  1023.6hPa SSW 3.0mph /  4.8km/h 10.0mph /  16.1km/h 64% 0.00in /  0mm
21:44 31.9 °F /  -0.1 °C 21.1 °F /  -6.1 °C 30.22in /  1023.2hPa SW 4.0mph /  6.4km/h 9.0mph /  14.5km/h 64% 0.00in /  0mm
21:49 32.1 °F /  0.1 °C 21.3 °F /  -5.9 °C 30.22in /  1023.2hPa SSW 5.0mph /  8km/h 11.0mph /  17.7km/h 64% 0.00in /  0mm
21:54 32.1 °F /  0.1 °C 20.9 °F /  -6.2 °C 30.22in /  1023.2hPa SSW 5.0mph /  8km/h 11.0mph /  17.7km/h 63% 0.00in /  0mm
21:59 32.2 °F /  0.1 °C 21.0 °F /  -6.1 °C 30.22in /  1023.2hPa SW 5.0mph /  8km/h 11.0mph /  17.7km/h 63% 0.00in /  0mm
22:04 32.3 °F /  0.2 °C 21.1 °F /  -6.1 °C 30.21in /  1022.9hPa SSW 6.0mph /  9.7km/h 11.0mph /  17.7km/h 63% 0.00in /  0mm
22:09 32.5 °F /  0.3 °C 20.9 °F /  -6.2 °C 30.21in /  1022.9hPa SSW 7.0mph /  11.3km/h 14.0mph /  22.5km/h 62% 0.00in /  0mm
22:14 32.7 °F /  0.4 °C 21.1 °F /  -6.1 °C 30.21in /  1022.9hPa SSW 5.0mph /  8km/h 16.0mph /  25.7km/h 62% 0.00in /  0mm
22:19 32.9 °F /  0.5 °C 20.9 °F /  -6.2 °C 30.21in /  1022.9hPa SSW 7.0mph /  11.3km/h 16.0mph /  25.7km/h 61% 0.00in /  0mm
22:24 33.1 °F /  0.6 °C 20.7 °F /  -6.3 °C 30.21in /  1022.9hPa SSW 5.0mph /  8km/h 15.0mph /  24.1km/h 60% 0.00in /  0mm
22:29 33.2 °F /  0.7 °C 20.8 °F /  -6.2 °C 30.20in /  1022.6hPa SSW 6.0mph /  9.7km/h 12.0mph /  19.3km/h 60% 0.00in /  0mm
22:39 33.4 °F /  0.8 °C 21.0 °F /  -6.1 °C 30.20in /  1022.6hPa SSW 6.0mph /  9.7km/h 15.0mph /  24.1km/h 60% 0.00in /  0mm
22:44 33.5 °F /  0.8 °C 21.1 °F /  -6.1 °C 30.20in /  1022.6hPa SW 6.0mph /  9.7km/h 15.0mph /  24.1km/h 60% 0.00in /  0mm
22:49 33.7 °F /  0.9 °C 20.9 °F /  -6.2 °C 30.20in /  1022.6hPa SW 6.0mph /  9.7km/h 18.0mph /  29km/h 59% 0.00in /  0mm
22:54 33.7 °F /  0.9 °C 20.9 °F /  -6.2 °C 30.20in /  1022.6hPa SSW 6.0mph /  9.7km/h 18.0mph /  29km/h 59% 0.00in /  0mm
22:59 33.8 °F /  1 °C 21.0 °F /  -6.1 °C 30.20in /  1022.6hPa SSW 7.0mph /  11.3km/h 17.0mph /  27.4km/h 59% 0.00in /  0mm
23:04 33.8 °F /  1 °C 21.0 °F /  -6.1 °C 30.20in /  1022.6hPa SSW 7.0mph /  11.3km/h 17.0mph /  27.4km/h 59% 0.00in /  0mm
23:09 33.8 °F /  1 °C 21.0 °F /  -6.1 °C 30.20in /  1022.6hPa SSW 5.0mph /  8km/h 13.0mph /  20.9km/h 59% 0.00in /  0mm
23:14 33.9 °F /  1.1 °C 21.1 °F /  -6.1 °C 30.20in /  1022.6hPa SSW 5.0mph /  8km/h 13.0mph /  20.9km/h 59% 0.00in /  0mm
23:19 33.9 °F /  1.1 °C 21.1 °F /  -6.1 °C 30.20in /  1022.6hPa SSW 7.0mph /  11.3km/h 13.0mph /  20.9km/h 59% 0.00in /  0mm
23:24 34.1 °F /  1.2 °C 20.9 °F /  -6.2 °C 30.20in /  1022.6hPa SSW 8.0mph /  12.9km/h 15.0mph /  24.1km/h 58% 0.00in /  0mm
23:29 34.1 °F /  1.2 °C 21.3 °F /  -5.9 °C 30.19in /  1022.2hPa SSW 3.0mph /  4.8km/h 15.0mph /  24.1km/h 59% 0.00in /  0mm
23:34 34.2 °F /  1.2 °C 21.0 °F /  -6.1 °C 30.19in /  1022.2hPa SSW 6.0mph /  9.7km/h 14.0mph /  22.5km/h 58% 0.00in /  0mm
23:39 34.4 °F /  1.3 °C 21.2 °F /  -6 °C 30.19in /  1022.2hPa SSW 10.0mph /  16.1km/h 15.0mph /  24.1km/h 58% 0.00in /  0mm
23:44 34.5 °F /  1.4 °C 20.8 °F /  -6.2 °C 30.19in /  1022.2hPa SSW 9.0mph /  14.5km/h 15.0mph /  24.1km/h 57% 0.00in /  0mm
23:49 34.6 °F /  1.4 °C 21.3 °F /  -5.9 °C 30.19in /  1022.2hPa SSW 6.0mph /  9.7km/h 17.0mph /  27.4km/h 58% 0.00in /  0mm
23:54 34.6 °F /  1.4 °C 21.3 °F /  -5.9 °C 30.19in /  1022.2hPa SSW 7.0mph /  11.3km/h 17.0mph /  27.4km/h 58% 0.00in /  0mm
23:59 34.7 °F /  1.5 °C 21.0 °F /  -6.1 °C 30.19in /  1022.2hPa SSW 9.0mph /  14.5km/h 18.0mph /  29km/h 57% 0.00in /  0mm
Westford Weather
Compliments of Weather Underground

 
 
Current Radar Loop:

Copyright © WestfordWeather.net 2007-2014. All rights reserved.